createdAt,value
2019-03-21T00:01:43.856Z,24.30
2019-03-21T00:04:14.477Z,22.07
2019-03-21T00:06:43.511Z,20.40
2019-03-21T00:09:15.805Z,22.75
2019-03-21T00:12:01.815Z,23.62
2019-03-21T00:14:44.123Z,19.87
2019-03-21T00:17:31.351Z,21.45
2019-03-21T00:20:01.215Z,22.10
2019-03-21T00:22:29.789Z,20.32
2019-03-21T00:25:00.358Z,23.45
2019-03-21T00:27:28.932Z,21.73
2019-03-21T00:29:57.756Z,24.15
2019-03-21T00:32:26.334Z,21.50
2019-03-21T00:34:54.901Z,21.52
2019-03-21T00:37:23.512Z,19.40
2019-03-21T00:39:52.897Z,20.92
2019-03-21T00:42:21.438Z,24.15
2019-03-21T00:44:50.880Z,21.73
2019-03-21T00:47:19.491Z,19.92
2019-03-21T00:49:48.058Z,24.72
2019-03-21T00:52:16.640Z,21.25
2019-03-21T00:54:45.242Z,21.07
2019-03-21T00:57:13.857Z,22.70
2019-03-21T00:59:42.926Z,24.82
2019-03-21T01:02:11.496Z,23.12
2019-03-21T01:04:40.097Z,22.67
2019-03-21T01:07:08.715Z,21.75
2019-03-21T01:09:37.361Z,26.17
2019-03-21T01:12:06.647Z,22.30
2019-03-21T01:14:35.535Z,24.05
2019-03-21T01:17:04.174Z,26.62
2019-03-21T01:19:33.445Z,22.70
2019-03-21T01:22:02.518Z,21.52
2019-03-21T01:24:31.104Z,23.18
2019-03-21T01:26:59.837Z,23.52
2019-03-21T01:29:28.457Z,26.12
2019-03-21T01:31:57.461Z,24.27
2019-03-21T01:34:26.036Z,19.67
2019-03-21T01:36:54.644Z,23.85
2019-03-21T01:39:23.218Z,23.00
2019-03-21T01:41:51.845Z,27.40
2019-03-21T01:44:20.467Z,23.35
2019-03-21T01:46:49.039Z,24.00
2019-03-21T01:49:17.608Z,25.20
2019-03-21T01:51:46.230Z,25.45
2019-03-21T01:54:14.800Z,24.90
2019-03-21T01:56:43.374Z,25.68
2019-03-21T01:59:11.944Z,21.30
2019-03-21T02:01:41.032Z,24.07
2019-03-21T02:04:09.599Z,24.50
2019-03-21T02:06:39.185Z,28.15
2019-03-21T02:09:08.612Z,24.20
2019-03-21T02:11:38.766Z,26.05
2019-03-21T02:14:07.559Z,35.17
2019-03-21T02:16:36.138Z,25.68
2019-03-21T02:19:04.847Z,25.08
2019-03-21T02:21:33.407Z,31.95
2019-03-21T02:24:01.969Z,25.72
2019-03-21T02:26:31.617Z,25.75
2019-03-21T02:29:01.200Z,26.17
2019-03-21T02:31:29.797Z,30.57
2019-03-21T02:33:58.433Z,27.73
2019-03-21T02:36:27.024Z,27.50
2019-03-21T02:38:55.599Z,24.25
2019-03-21T02:41:25.723Z,25.40
2019-03-21T02:43:54.572Z,22.40
2019-03-21T02:46:24.077Z,28.55
2019-03-21T02:48:52.719Z,28.07
2019-03-21T02:51:21.295Z,26.65
2019-03-21T02:53:49.859Z,31.12
2019-03-21T02:56:21.458Z,29.23
2019-03-21T02:58:50.024Z,26.53
2019-03-21T03:01:18.681Z,27.13
2019-03-21T03:03:47.387Z,26.15
2019-03-21T03:06:15.948Z,29.80
2019-03-21T03:08:44.531Z,26.27
2019-03-21T03:11:19.140Z,27.13
2019-03-21T03:13:49.757Z,29.32
2019-03-21T03:16:18.793Z,32.67
2019-03-21T03:18:47.379Z,29.75
2019-03-21T03:21:16.938Z,27.67
2019-03-21T03:23:45.566Z,28.15
2019-03-21T03:26:14.147Z,29.23
2019-03-21T03:28:47.291Z,29.90
2019-03-21T03:31:16.074Z,32.85
2019-03-21T03:33:45.065Z,29.30
2019-03-21T03:36:15.591Z,34.65
2019-03-21T03:38:44.249Z,28.52
2019-03-21T03:41:20.774Z,29.32
2019-03-21T03:43:49.409Z,33.00
2019-03-21T03:46:17.977Z,30.48
2019-03-21T03:48:46.575Z,32.25
2019-03-21T03:51:15.140Z,33.65
2019-03-21T03:53:43.727Z,33.42
2019-03-21T03:56:13.855Z,33.13
2019-03-21T03:58:57.432Z,35.90
2019-03-21T04:01:26.088Z,30.10
2019-03-21T04:03:54.727Z,33.83
2019-03-21T04:06:23.295Z,35.35
2019-03-21T04:08:51.959Z,33.13
2019-03-21T04:11:21.548Z,38.90
2019-03-21T04:13:52.100Z,34.08
2019-03-21T04:16:21.692Z,37.10
2019-03-21T04:18:50.270Z,34.88
2019-03-21T04:21:18.862Z,39.30
2019-03-21T04:23:47.437Z,36.40
2019-03-21T04:26:28.051Z,33.67
2019-03-21T04:28:56.962Z,32.13
2019-03-21T04:31:25.541Z,36.50
2019-03-21T04:33:57.597Z,35.28
2019-03-21T04:36:26.182Z,36.10
2019-03-21T04:38:54.794Z,35.90
2019-03-21T04:41:23.377Z,37.40
2019-03-21T04:43:51.931Z,38.90
2019-03-21T04:46:20.649Z,32.65
2019-03-21T04:48:49.214Z,37.35
2019-03-21T04:51:17.800Z,31.62
2019-03-21T04:53:46.779Z,35.52
2019-03-21T04:56:15.395Z,31.60
2019-03-21T04:58:43.972Z,37.45
2019-03-21T05:01:12.635Z,34.58
2019-03-21T05:03:41.238Z,32.40
2019-03-21T05:06:10.207Z,28.65
2019-03-21T05:08:39.687Z,37.58
2019-03-21T05:11:08.273Z,30.75
2019-03-21T05:13:36.844Z,50.33
2019-03-21T05:16:14.332Z,36.95
2019-03-21T05:18:56.511Z,35.43
2019-03-21T05:21:25.273Z,32.73
2019-03-21T05:23:53.833Z,42.30
2019-03-21T05:26:22.453Z,34.70
2019-03-21T05:28:51.172Z,38.20
2019-03-21T05:31:25.276Z,38.80
2019-03-21T05:33:53.863Z,42.43
2019-03-21T05:36:22.455Z,35.92
2019-03-21T05:38:51.035Z,38.42
2019-03-21T05:41:21.664Z,33.13
2019-03-21T05:43:53.540Z,41.05
2019-03-21T05:46:26.473Z,38.50
2019-03-21T05:48:52.377Z,37.05
2019-03-21T05:51:21.351Z,36.35
2019-03-21T05:53:49.923Z,31.90
2019-03-21T05:56:18.543Z,32.88
2019-03-21T05:58:48.042Z,30.77
2019-03-21T06:01:16.917Z,36.75
2019-03-21T06:03:49.669Z,39.53
2019-03-21T06:06:30.293Z,35.98
2019-03-21T06:08:58.892Z,36.77
2019-03-21T06:11:28.017Z,37.40
2019-03-21T06:13:56.591Z,32.80
2019-03-21T06:16:25.605Z,37.50
2019-03-21T06:18:57.252Z,34.15
2019-03-21T06:22:00.585Z,39.53
2019-03-21T06:24:35.156Z,34.33
2019-03-21T06:27:28.675Z,37.45
2019-03-21T06:29:57.548Z,36.60
2019-03-21T06:32:27.733Z,32.28
2019-03-21T06:34:57.845Z,38.13
2019-03-21T06:37:28.648Z,39.20
2019-03-21T06:39:57.562Z,34.85
2019-03-21T06:42:26.504Z,34.83
2019-03-21T06:44:55.196Z,30.55
2019-03-21T06:47:25.766Z,35.35
2019-03-21T06:49:54.378Z,33.23
2019-03-21T06:52:23.993Z,31.57
2019-03-21T06:54:52.555Z,33.75
2019-03-21T06:57:22.594Z,33.38
2019-03-21T06:59:51.179Z,34.98
2019-03-21T07:02:19.852Z,31.10
2019-03-21T07:04:48.495Z,33.95
2019-03-21T07:07:17.126Z,31.73
2019-03-21T07:09:45.680Z,34.55
2019-03-21T07:12:14.317Z,31.05
2019-03-21T07:14:43.273Z,32.35
2019-03-21T07:17:12.263Z,32.40
2019-03-21T07:19:40.839Z,33.85
2019-03-21T07:22:09.419Z,33.78
2019-03-21T07:24:38.442Z,32.95
2019-03-21T07:27:07.085Z,34.10
2019-03-21T07:29:35.676Z,35.80
2019-03-21T07:32:04.264Z,35.17
2019-03-21T07:34:32.856Z,31.40
2019-03-21T07:37:01.450Z,30.77
2019-03-21T07:39:30.996Z,37.70
2019-03-21T07:42:01.364Z,31.85
2019-03-21T07:44:30.658Z,35.45
2019-03-21T07:46:59.235Z,33.33
2019-03-21T07:49:27.829Z,33.95
2019-03-21T07:51:57.842Z,32.30
2019-03-21T07:54:26.460Z,34.75
2019-03-21T07:56:55.042Z,33.53
2019-03-21T07:59:23.617Z,34.43
2019-03-21T08:01:52.236Z,32.98
2019-03-21T08:04:20.820Z,32.70
2019-03-21T08:06:50.297Z,33.25
2019-03-21T08:09:18.958Z,32.20
2019-03-21T08:11:47.559Z,32.55
2019-03-21T08:14:16.184Z,34.98
2019-03-21T08:16:44.759Z,34.92
2019-03-21T08:19:13.346Z,34.20
2019-03-21T08:21:41.916Z,27.37
2019-03-21T08:24:10.513Z,28.07
2019-03-21T08:26:39.117Z,32.70
2019-03-21T08:29:07.829Z,28.65
2019-03-21T08:31:36.385Z,25.90
2019-03-21T08:34:05.030Z,24.67
2019-03-21T08:36:33.704Z,27.10
2019-03-21T08:39:02.308Z,25.43
2019-03-21T08:41:30.889Z,30.25
2019-03-21T08:43:59.475Z,25.37
2019-03-21T08:46:28.049Z,28.27
2019-03-21T08:48:56.639Z,28.55
2019-03-21T08:51:25.309Z,27.98
2019-03-21T08:53:53.972Z,22.75
2019-03-21T08:56:22.628Z,24.92
2019-03-21T08:58:51.204Z,20.05
2019-03-21T09:01:20.100Z,22.55
2019-03-21T09:03:48.733Z,20.55
2019-03-21T09:06:17.323Z,21.52
2019-03-21T09:08:45.953Z,19.62
2019-03-21T09:11:15.547Z,21.07
2019-03-21T09:13:44.131Z,20.00
2019-03-21T09:16:12.768Z,20.57
2019-03-21T09:18:41.335Z,19.00
2019-03-21T09:21:19.189Z,18.85
2019-03-21T09:23:40.152Z,18.48
2019-03-21T09:26:08.822Z,20.45
2019-03-21T09:28:37.397Z,19.00
2019-03-21T09:31:06.007Z,19.25
2019-03-21T09:33:34.573Z,19.17
2019-03-21T09:36:03.159Z,22.27
2019-03-21T09:38:31.763Z,21.45
2019-03-21T09:41:00.436Z,17.95
2019-03-21T09:43:29.012Z,18.17
2019-03-21T09:45:57.619Z,18.73
2019-03-21T09:48:26.203Z,18.65
2019-03-21T09:50:54.801Z,21.42
2019-03-21T09:53:23.378Z,19.37
2019-03-21T09:55:52.309Z,16.52
2019-03-21T09:58:20.879Z,18.50
2019-03-21T10:00:49.860Z,19.02
2019-03-21T10:03:18.478Z,14.98
2019-03-21T10:05:46.997Z,16.12
2019-03-21T10:08:15.615Z,16.48
2019-03-21T10:10:44.204Z,15.40
2019-03-21T10:13:14.455Z,19.90
2019-03-21T10:15:43.139Z,24.55
2019-03-21T10:18:11.761Z,27.17
2019-03-21T10:20:40.359Z,27.45
2019-03-21T10:23:09.001Z,25.55
2019-03-21T10:25:37.939Z,24.77
2019-03-21T10:28:06.484Z,30.72
2019-03-21T10:30:42.368Z,26.62
2019-03-21T10:33:12.972Z,20.43
2019-03-21T10:35:41.637Z,23.02
2019-03-21T10:38:10.686Z,21.42
2019-03-21T10:40:39.808Z,19.10
2019-03-21T10:43:10.393Z,19.32
2019-03-21T10:45:38.874Z,17.52
2019-03-21T10:48:07.713Z,18.77
2019-03-21T10:50:37.830Z,15.72
2019-03-21T10:53:09.419Z,15.38
2019-03-21T10:55:39.249Z,17.67
2019-03-21T10:58:08.361Z,23.30
2019-03-21T11:00:37.099Z,18.62
2019-03-21T11:03:06.052Z,19.35
2019-03-21T11:05:35.361Z,19.50
2019-03-21T11:08:04.682Z,21.55
2019-03-21T11:10:33.287Z,19.07
2019-03-21T11:13:01.864Z,16.52
2019-03-21T11:15:30.572Z,19.90
2019-03-21T11:17:59.200Z,14.75
2019-03-21T11:20:32.316Z,18.87
2019-03-21T11:23:00.957Z,18.30
2019-03-21T11:25:30.601Z,17.32
2019-03-21T11:27:59.318Z,15.28
2019-03-21T11:30:38.751Z,16.48
2019-03-21T11:33:07.660Z,16.52
2019-03-21T11:35:36.643Z,15.88
2019-03-21T11:38:06.498Z,14.07
2019-03-21T11:40:35.203Z,17.30
2019-03-21T11:43:05.900Z,14.85
2019-03-21T11:45:34.548Z,16.23
2019-03-21T11:48:03.618Z,16.00
2019-03-21T11:50:32.184Z,17.77
2019-03-21T11:53:00.828Z,15.85
2019-03-21T11:55:29.572Z,15.25
2019-03-21T11:57:58.143Z,14.00
2019-03-21T12:00:28.502Z,18.17
2019-03-21T12:02:57.140Z,16.12
2019-03-21T12:05:25.712Z,15.53
2019-03-21T12:07:54.281Z,18.32
2019-03-21T12:10:22.884Z,15.40
2019-03-21T12:12:51.496Z,25.97
2019-03-21T12:15:20.048Z,38.53
2019-03-21T12:17:48.649Z,15.78
2019-03-21T12:20:26.224Z,14.15
2019-03-21T12:22:55.280Z,14.87
2019-03-21T12:25:23.866Z,13.68
2019-03-21T12:27:52.464Z,13.30
2019-03-21T12:30:36.134Z,19.80
2019-03-21T12:33:05.620Z,16.80
2019-03-21T12:35:34.359Z,18.15
2019-03-21T12:38:03.026Z,16.02
2019-03-21T12:40:32.060Z,13.65
2019-03-21T12:43:00.635Z,25.20
2019-03-21T12:45:29.250Z,15.95
2019-03-21T12:47:57.861Z,22.50
2019-03-21T12:50:26.437Z,13.40
2019-03-21T12:52:55.013Z,17.20
2019-03-21T12:55:23.629Z,15.15
2019-03-21T12:57:52.175Z,13.75
2019-03-21T13:00:38.407Z,13.28
2019-03-21T13:03:07.140Z,16.55
2019-03-21T13:05:35.863Z,15.20
2019-03-21T13:08:04.536Z,16.12
2019-03-21T13:10:33.179Z,13.68
2019-03-21T13:13:02.187Z,13.03
2019-03-21T13:15:30.862Z,12.03
2019-03-21T13:18:00.660Z,11.73
2019-03-21T13:20:29.460Z,17.62
2019-03-21T13:22:58.109Z,13.08
2019-03-21T13:25:26.684Z,13.03
2019-03-21T13:27:55.286Z,9.88
2019-03-21T13:30:23.985Z,12.40
2019-03-21T13:32:52.620Z,11.60
2019-03-21T13:35:31.960Z,13.32
2019-03-21T13:37:53.889Z,12.45
2019-03-21T13:40:21.864Z,14.35
2019-03-21T13:42:50.425Z,18.67
2019-03-21T13:45:19.072Z,14.33
2019-03-21T13:47:47.706Z,11.68
2019-03-21T13:50:16.329Z,12.28
2019-03-21T13:52:44.899Z,13.32
2019-03-21T13:55:13.734Z,15.23
2019-03-21T13:57:42.303Z,13.30
2019-03-21T14:00:19.383Z,12.43
2019-03-21T14:02:47.948Z,16.25
2019-03-21T14:05:16.651Z,15.03
2019-03-21T14:07:45.346Z,13.25
2019-03-21T14:10:14.046Z,14.35
2019-03-21T14:12:42.635Z,15.20
2019-03-21T14:15:15.962Z,15.72
2019-03-21T14:17:44.592Z,16.57
2019-03-21T14:20:15.095Z,12.80
2019-03-21T14:22:43.793Z,12.58
2019-03-21T14:25:12.924Z,15.90
2019-03-21T14:27:41.505Z,17.12
2019-03-21T14:30:17.116Z,17.85
2019-03-21T14:32:45.764Z,15.53
2019-03-21T14:35:14.770Z,12.98
2019-03-21T14:37:43.422Z,15.18
2019-03-21T14:40:14.160Z,17.50
2019-03-21T14:42:43.233Z,12.25
2019-03-21T14:45:16.812Z,15.72
2019-03-21T14:47:45.398Z,16.67
2019-03-21T14:50:18.797Z,12.18
2019-03-21T14:52:47.361Z,12.75
2019-03-21T14:55:16.383Z,14.20
2019-03-21T14:57:45.078Z,15.53
2019-03-21T15:00:16.466Z,15.18
2019-03-21T15:02:45.177Z,14.80
2019-03-21T15:05:15.506Z,16.20
2019-03-21T15:07:44.085Z,13.22
2019-03-21T15:10:15.783Z,15.93
2019-03-21T15:12:44.345Z,18.50
2019-03-21T15:15:16.446Z,18.07
2019-03-21T15:17:45.172Z,23.87
2019-03-21T15:20:18.017Z,15.53
2019-03-21T15:22:46.647Z,17.45
2019-03-21T15:25:15.363Z,26.90
2019-03-21T15:27:44.028Z,20.48
2019-03-21T15:30:15.586Z,15.15
2019-03-21T15:32:44.415Z,12.37
2019-03-21T15:35:14.031Z,15.25
2019-03-21T15:37:42.613Z,16.02
2019-03-21T15:40:15.707Z,13.10
2019-03-21T15:42:44.394Z,18.65
2019-03-21T15:45:22.821Z,15.50
2019-03-21T15:47:47.957Z,19.00
2019-03-21T15:50:22.970Z,17.73
2019-03-21T15:52:51.525Z,13.53
2019-03-21T15:55:20.103Z,19.67
2019-03-21T15:57:48.705Z,19.98
2019-03-21T16:00:20.356Z,14.90
2019-03-21T16:02:48.931Z,17.90
2019-03-21T16:05:17.508Z,15.15
2019-03-21T16:07:46.118Z,18.40
2019-03-21T16:10:14.769Z,15.48
2019-03-21T16:12:43.372Z,21.30
2019-03-21T16:15:11.949Z,19.00
2019-03-21T16:17:40.846Z,17.27
2019-03-21T16:20:09.667Z,19.48
2019-03-21T16:22:38.312Z,22.20
2019-03-21T16:25:08.437Z,21.23
2019-03-21T16:27:37.628Z,25.65
2019-03-21T16:30:13.043Z,23.87
2019-03-21T16:32:41.625Z,23.65
2019-03-21T16:35:11.178Z,23.00
2019-03-21T16:37:39.763Z,21.02
2019-03-21T16:40:13.251Z,22.30
2019-03-21T16:42:42.008Z,21.15
2019-03-21T16:45:12.431Z,26.97
2019-03-21T16:47:42.034Z,24.30
2019-03-21T16:50:15.522Z,22.52
2019-03-21T16:52:44.092Z,26.60
2019-03-21T16:55:14.945Z,26.20
2019-03-21T16:57:43.660Z,26.60
2019-03-21T17:00:22.211Z,31.23
2019-03-21T17:02:50.888Z,26.48
2019-03-21T17:05:22.182Z,27.52
2019-03-21T17:07:50.044Z,31.75
2019-03-21T17:10:18.745Z,29.55
2019-03-21T17:12:47.633Z,29.35
2019-03-21T17:15:16.279Z,30.92
2019-03-21T17:17:44.855Z,31.25
2019-03-21T17:20:13.786Z,29.95
2019-03-21T17:22:42.387Z,40.63
2019-03-21T17:25:12.729Z,41.50
2019-03-21T17:27:41.339Z,36.80
2019-03-21T17:30:12.993Z,39.23
2019-03-21T17:32:41.904Z,46.50
2019-03-21T17:35:11.321Z,44.33
2019-03-21T17:37:45.710Z,47.93
2019-03-21T17:40:15.458Z,47.67
2019-03-21T17:42:44.087Z,46.23
2019-03-21T17:45:14.999Z,35.85
2019-03-21T17:47:44.047Z,47.80
2019-03-21T17:50:15.012Z,31.93
2019-03-21T17:52:43.752Z,35.78
2019-03-21T17:55:12.474Z,34.40
2019-03-21T17:57:41.052Z,37.45
2019-03-21T18:00:12.735Z,33.13
2019-03-21T18:02:45.548Z,33.73
2019-03-21T18:05:14.181Z,37.00
2019-03-21T18:07:42.783Z,35.88
2019-03-21T18:10:25.606Z,39.73
2019-03-21T18:12:54.247Z,35.28
2019-03-21T18:15:22.841Z,40.45
2019-03-21T18:17:51.619Z,33.02
2019-03-21T18:20:20.197Z,39.45
2019-03-21T18:22:48.779Z,34.90
2019-03-21T18:25:17.432Z,31.30
2019-03-21T18:27:46.044Z,30.68
2019-03-21T18:30:15.647Z,35.83
2019-03-21T18:32:44.619Z,35.52
2019-03-21T18:35:13.356Z,36.93
2019-03-21T18:37:41.944Z,34.92
2019-03-21T18:40:11.762Z,32.78
2019-03-21T18:42:40.820Z,35.23
2019-03-21T18:45:12.497Z,35.08
2019-03-21T18:47:41.440Z,35.92
2019-03-21T18:50:12.583Z,36.68
2019-03-21T18:52:41.168Z,38.13
2019-03-21T18:55:10.261Z,37.53
2019-03-21T18:57:38.815Z,40.65
2019-03-21T19:00:10.585Z,35.85
2019-03-21T19:02:39.220Z,34.00
2019-03-21T19:05:08.426Z,41.55
2019-03-21T19:07:37.054Z,35.70
2019-03-21T19:10:09.252Z,38.33
2019-03-21T19:12:37.883Z,37.80
2019-03-21T19:15:11.984Z,37.63
2019-03-21T19:17:40.932Z,37.20
2019-03-21T19:20:15.464Z,33.40
2019-03-21T19:22:44.558Z,35.95
2019-03-21T19:25:19.028Z,37.25
2019-03-21T19:27:44.271Z,42.62
2019-03-21T19:30:20.474Z,36.53
2019-03-21T19:32:49.720Z,42.95
2019-03-21T19:35:19.692Z,40.95
2019-03-21T19:37:48.426Z,43.20
2019-03-21T19:40:20.400Z,45.25
2019-03-21T19:42:49.238Z,40.88
2019-03-21T19:45:19.643Z,41.65
2019-03-21T19:47:49.153Z,41.02
2019-03-21T19:50:20.564Z,41.25
2019-03-21T19:52:54.899Z,41.95
2019-03-21T19:55:30.963Z,41.53
2019-03-21T19:57:55.774Z,43.87
2019-03-21T20:00:24.597Z,43.92
2019-03-21T20:02:53.332Z,46.08
2019-03-21T20:05:21.970Z,44.23
2019-03-21T20:07:50.664Z,42.83
2019-03-21T20:10:21.574Z,43.78
2019-03-21T20:12:50.188Z,45.58
2019-03-21T20:15:19.927Z,46.08
2019-03-21T20:17:48.591Z,46.40
2019-03-21T20:20:18.002Z,46.85
2019-03-21T20:22:46.669Z,44.88
2019-03-21T20:25:15.732Z,45.10
2019-03-21T20:27:46.298Z,42.60
2019-03-21T20:30:20.864Z,40.78
2019-03-21T20:32:49.555Z,48.08
2019-03-21T20:35:18.232Z,43.78
2019-03-21T20:37:46.878Z,42.25
2019-03-21T20:40:19.561Z,41.13
2019-03-21T20:42:48.140Z,38.20
2019-03-21T20:45:20.437Z,45.50
2019-03-21T20:47:49.076Z,43.45
2019-03-21T20:50:17.997Z,41.35
2019-03-21T20:52:46.629Z,41.28
2019-03-21T20:55:15.428Z,45.08
2019-03-21T20:57:44.086Z,43.70
2019-03-21T21:00:21.199Z,43.90
2019-03-21T21:02:50.506Z,40.98
2019-03-21T21:05:19.100Z,45.78
2019-03-21T21:07:48.099Z,47.38
2019-03-21T21:10:17.074Z,41.63
2019-03-21T21:12:46.674Z,40.95
2019-03-21T21:15:16.546Z,42.75
2019-03-21T21:17:45.220Z,43.10
2019-03-21T21:20:18.522Z,40.95
2019-03-21T21:22:47.162Z,43.87
2019-03-21T21:25:15.859Z,46.63
2019-03-21T21:27:49.969Z,40.43
2019-03-21T21:30:19.344Z,42.43
2019-03-21T21:32:47.990Z,41.00
2019-03-21T21:35:16.684Z,39.67
2019-03-21T21:37:45.384Z,42.33
2019-03-21T21:40:15.534Z,43.60
2019-03-21T21:42:44.132Z,44.95
2019-03-21T21:45:15.952Z,40.85
2019-03-21T21:47:44.803Z,41.15
2019-03-21T21:50:14.756Z,39.42
2019-03-21T21:52:43.766Z,43.00
2019-03-21T21:55:12.531Z,43.52
2019-03-21T21:57:41.186Z,46.60
2019-03-21T22:00:13.100Z,43.98
2019-03-21T22:02:41.721Z,42.98
2019-03-21T22:05:11.417Z,42.40
2019-03-21T22:07:40.948Z,46.65
2019-03-21T22:10:10.808Z,41.00
2019-03-21T22:12:39.514Z,44.33
2019-03-21T22:15:10.711Z,47.20
2019-03-21T22:17:39.297Z,48.58
2019-03-21T22:20:09.997Z,42.80
2019-03-21T22:22:38.768Z,41.77
2019-03-21T22:25:09.077Z,41.53
2019-03-21T22:27:37.781Z,44.15
2019-03-21T22:30:12.149Z,44.18
2019-03-21T22:32:40.794Z,43.15
2019-03-21T22:35:10.028Z,40.12
2019-03-21T22:37:38.620Z,38.55
2019-03-21T22:40:11.872Z,40.12
2019-03-21T22:42:40.562Z,43.92
2019-03-21T22:45:15.263Z,46.40
2019-03-21T22:47:43.916Z,44.67
2019-03-21T22:50:17.040Z,39.50
2019-03-21T22:52:46.189Z,38.67
2019-03-21T22:55:14.921Z,39.98
2019-03-21T22:57:44.069Z,41.80
2019-03-21T23:00:15.725Z,48.33
2019-03-21T23:02:44.546Z,48.90
2019-03-21T23:05:13.608Z,46.40
2019-03-21T23:07:42.244Z,40.58
2019-03-21T23:10:11.057Z,45.30
2019-03-21T23:12:39.726Z,48.23
2019-03-21T23:15:10.180Z,45.35
2019-03-21T23:17:39.186Z,48.00
2019-03-21T23:20:13.522Z,43.73
2019-03-21T23:22:42.084Z,45.35
2019-03-21T23:25:12.408Z,39.73
2019-03-21T23:27:41.014Z,43.42
2019-03-21T23:30:12.718Z,46.90
2019-03-21T23:32:41.317Z,44.42
2019-03-21T23:35:10.135Z,41.25
2019-03-21T23:37:38.787Z,41.37
2019-03-21T23:40:09.714Z,42.17
2019-03-21T23:42:38.296Z,42.53
2019-03-21T23:45:08.742Z,41.35
2019-03-21T23:47:37.319Z,45.50
2019-03-21T23:50:08.273Z,44.77
2019-03-21T23:52:36.845Z,43.70
2019-03-21T23:55:07.542Z,44.38
2019-03-21T23:57:36.249Z,43.17
